| time (UTC) | temp C | wind direction | speed KPH | gust KPH | rain 1hr cm | rain 24hr cm | rain mn cm | humidity % | barometer mb |
| 20260504173046 | 25 | 226 | 1.6 | 12.9 | 0.00 | 0.00 | 0.00 | 41 | 1017.1 |
| 20260504171544 | 24 | 80 | 0.0 | 6.4 | 0.00 | 0.00 | 0.00 | 41 | 1017.0 |
| 20260504081548 | 10 | 0 | 0.0 | 0.0 | 0.00 | 0.03 | 0.00 | 94 | 1017.3 |
| 20260504044543 | 12 | 0 | 0.0 | 0.0 | 0.00 | 0.03 | 0.03 | 91 | 1018.5 |
| 20260504043041 | 13 | 0 | 0.0 | 0.0 | 0.00 | 0.03 | 0.03 | 91 | 1018.5 |
| 20260504041536 | 13 | 0 | 0.0 | 0.0 | 0.00 | 0.03 | 0.03 | 91 | 1018.6 |
| 20260504040038 | 13 | 0 | 0.0 | 0.0 | 0.00 | 0.03 | 0.03 | 91 | 1018.5 |
| 20260504034551 | 13 | 0 | 0.0 | 0.0 | 0.00 | 0.03 | 0.03 | 90 | 1018.6 |
| 20260504033044 | 13 | 0 | 0.0 | 0.0 | 0.00 | 0.03 | 0.03 | 90 | 1018.5 |
| 20260504031545 | 13 | 0 | 0.0 | 0.0 | 0.00 | 0.03 | 0.03 | 90 | 1018.6 |
| 20260504030043 | 13 | 0 | 0.0 | 0.0 | 0.00 | 0.03 | 0.03 | 89 | 1018.5 |
| 20260504024545 | 14 | 0 | 0.0 | 0.0 | 0.00 | 0.05 | 0.03 | 88 | 1018.4 |
| 20260504023050 | 15 | 0 | 0.0 | 0.0 | 0.00 | 0.05 | 0.03 | 87 | 1018.3 |
| 20260504021544 | 15 | 0 | 0.0 | 0.0 | 0.00 | 0.05 | 0.03 | 85 | 1018.2 |
| 20260504020042 | 15 | 0 | 0.0 | 0.0 | 0.00 | 0.05 | 0.03 | 83 | 1018.0 |
| 20260504014553 | 16 | 0 | 0.0 | 0.0 | 0.00 | 0.05 | 0.03 | 81 | 1017.9 |
| 20260504013038 | 16 | 0 | 0.0 | 0.0 | 0.00 | 0.05 | 0.03 | 79 | 1017.8 |
| 20260504011542 | 17 | 0 | 0.0 | 0.0 | 0.00 | 0.05 | 0.03 | 76 | 1017.6 |
| 20260504010038 | 17 | 0 | 0.0 | 0.0 | 0.00 | 0.05 | 0.03 | 74 | 1017.4 |
| 20260504004546 | 18 | 0 | 0.0 | 0.0 | 0.00 | 0.05 | 0.03 | 71 | 1017.5 |
| 20260504003050 | 19 | 0 | 0.0 | 0.0 | 0.00 | 0.05 | 0.03 | 71 | 1017.3 |
| 20260504001542 | 20 | 0 | 0.0 | 0.0 | 0.00 | 0.05 | 0.03 | 68 | 1017.3 |
| 20260504000049 | 21 | 0 | 0.0 | 0.0 | 0.00 | 0.05 | 0.03 | 63 | 1017.3 |
| 20260503234546 | 21 | 0 | 0.0 | 0.0 | 0.00 | 0.05 | 0.03 | 57 | 1017.4 |
| 20260503233043 | 22 | 0 | 0.0 | 0.0 | 0.00 | 0.05 | 0.03 | 53 | 1017.5 |
| 20260503231545 | 22 | 0 | 0.0 | 0.0 | 0.00 | 0.05 | 0.03 | 51 | 1017.5 |
| 20260503230045 | 23 | 196 | 0.0 | 1.6 | 0.00 | 0.05 | 0.03 | 45 | 1017.4 |
| 20260503224548 | 23 | 0 | 0.0 | 1.6 | 0.00 | 0.08 | 0.03 | 41 | 1017.4 |
| 20260503223053 | 23 | 0 | 0.0 | 1.6 | 0.00 | 0.08 | 0.03 | 42 | 1017.4 |
| 20260503221548 | 23 | 0 | 0.0 | 1.6 | 0.00 | 0.08 | 0.03 | 41 | 1017.6 |
| 20260503220052 | 23 | 0 | 0.0 | 1.6 | 0.00 | 0.08 | 0.03 | 41 | 1017.7 |
| 20260503214546 | 23 | 343 | 0.0 | 3.2 | 0.00 | 0.10 | 0.03 | 42 | 1018.1 |
| 20260503213050 | 25 | 51 | 0.0 | 3.2 | 0.00 | 0.10 | 0.03 | 38 | 1018.4 |
| 20260503211544 | 25 | 0 | 0.0 | 1.6 | 0.00 | 0.10 | 0.03 | 38 | 1018.6 |
| 20260503210042 | 24 | 0 | 0.0 | 3.2 | 0.00 | 0.10 | 0.03 | 39 | 1018.8 |
| 20260503204538 | 25 | 303 | 0.0 | 4.8 | 0.00 | 0.13 | 0.03 | 38 | 1018.9 |
| 20260503203052 | 25 | 0 | 0.0 | 3.2 | 0.00 | 0.13 | 0.03 | 39 | 1019.1 |
| 20260503201537 | 25 | 158 | 0.0 | 4.8 | 0.00 | 0.13 | 0.03 | 35 | 1019.2 |
| 20260503200037 | 26 | 283 | 0.0 | 6.4 | 0.00 | 0.13 | 0.03 | 37 | 1019.6 |
| 20260503194539 | 25 | 0 | 0.0 | 4.8 | 0.00 | 0.15 | 0.03 | 40 | 1019.9 |
| 20260503193048 | 25 | 128 | 0.0 | 3.2 | 0.00 | 0.15 | 0.03 | 40 | 1020.2 |
| 20260503191538 | 24 | 0 | 1.6 | 3.2 | 0.00 | 0.15 | 0.03 | 40 | 1020.4 |
| 20260503190037 | 24 | 311 | 0.0 | 6.4 | 0.00 | 0.15 | 0.03 | 39 | 1020.6 |
| 20260503184555 | 24 | 167 | 0.0 | 3.2 | 0.00 | 0.23 | 0.03 | 43 | 1020.7 |
| 20260503183056 | 24 | 315 | 0.0 | 3.2 | 0.00 | 0.23 | 0.03 | 40 | 1020.8 |
| 20260503181541 | 23 | 108 | 1.6 | 6.4 | 0.00 | 0.23 | 0.03 | 37 | 1020.9 |
| 20260503180047 | 23 | 309 | 1.6 | 4.8 | 0.00 | 0.23 | 0.03 | 38 | 1021.1 |
| 20260503174546 | 23 | 307 | 3.2 | 4.8 | 0.00 | 0.30 | 0.03 | 38 | 1021.2 |